createdAt,value
2023-03-06T00:00:36.638Z,5.8
2023-03-06T00:02:38.618Z,4.8
2023-03-06T00:04:40.626Z,4.2
2023-03-06T00:06:45.772Z,5
2023-03-06T00:08:47.753Z,4.8
2023-03-06T00:10:49.746Z,4.2
2023-03-06T00:12:51.718Z,5.4
2023-03-06T00:14:53.722Z,4.3
2023-03-06T00:16:55.807Z,4.6
2023-03-06T00:18:57.700Z,4.8
2023-03-06T00:26:09.346Z,6.5
2023-03-06T00:34:20.417Z,5.1
2023-03-06T00:36:22.371Z,5.2
2023-03-06T00:44:30.295Z,5.8
2023-03-06T00:46:32.267Z,5.3
2023-03-06T00:48:37.383Z,4.7
2023-03-06T00:50:39.398Z,5
2023-03-06T00:54:43.329Z,4.7
2023-03-06T00:56:45.300Z,5
2023-03-06T00:58:47.298Z,4.7
2023-03-06T01:00:49.341Z,4.5
2023-03-06T01:02:54.391Z,5.4
2023-03-06T01:04:56.361Z,6.3
2023-03-06T01:06:58.298Z,5.8
2023-03-06T01:09:00.262Z,4.6
2023-03-06T01:11:02.240Z,4.8
2023-03-06T01:13:04.174Z,5.2
2023-03-06T01:17:11.294Z,6.2
2023-03-06T01:22:17.721Z,5.9
2023-03-06T01:24:19.673Z,6.3
2023-03-06T01:38:36.508Z,6.7
2023-03-06T01:40:38.468Z,6.7
2023-03-06T01:42:40.401Z,6.4
2023-03-06T01:52:53.326Z,7.1
2023-03-06T01:54:55.290Z,5.8
2023-03-06T01:56:57.224Z,6.2
2023-03-06T01:59:02.338Z,5.9
2023-03-06T02:01:04.406Z,5.5
2023-03-06T02:03:06.257Z,7.2
2023-03-06T02:05:08.232Z,6.7
2023-03-06T02:07:10.166Z,6.8
2023-03-06T02:09:12.114Z,7.9
2023-03-06T02:11:14.127Z,6.2
2023-03-06T02:13:19.856Z,7.7
2023-03-06T02:15:21.839Z,6.6
2023-03-06T02:17:23.758Z,5.9
2023-03-06T02:19:46.827Z,7.1
2023-03-06T02:21:48.775Z,7
2023-03-06T02:23:50.737Z,8.3
2023-03-06T02:25:55.843Z,7.6
2023-03-06T02:27:57.784Z,8
2023-03-06T02:29:59.735Z,7.7
2023-03-06T02:32:01.766Z,7.3
2023-03-06T02:34:03.794Z,8
2023-03-06T02:36:05.613Z,7.7
2023-03-06T02:38:07.538Z,7.4
2023-03-06T02:40:12.685Z,8.7
2023-03-06T02:42:14.613Z,7.3
2023-03-06T02:44:16.565Z,7.4
2023-03-06T02:46:18.573Z,7.8
2023-03-06T02:48:20.447Z,8.4
2023-03-06T02:50:22.438Z,7.2
2023-03-06T02:52:24.339Z,7.8
2023-03-06T02:54:29.443Z,6
2023-03-06T02:56:31.458Z,6.7
2023-03-06T02:58:33.411Z,7.7
2023-03-06T03:00:35.376Z,7.3
2023-03-06T03:02:37.299Z,8.1
2023-03-06T03:04:39.394Z,6.6
2023-03-06T03:06:41.201Z,8.9
2023-03-06T03:12:50.203Z,6.9
2023-03-06T03:13:52.744Z,8.9
2023-03-06T03:15:54.736Z,8.4
2023-03-06T03:17:56.751Z,8.7
2023-03-06T03:19:58.634Z,9.3
2023-03-06T03:22:03.733Z,8.1
2023-03-06T03:24:05.698Z,9.1
2023-03-06T03:26:07.662Z,7.7
2023-03-06T03:28:09.650Z,9.1
2023-03-06T03:30:12.386Z,10.3
2023-03-06T03:32:13.624Z,9.1
2023-03-06T03:34:15.530Z,9.3
2023-03-06T03:36:20.695Z,8.6
2023-03-06T03:38:22.592Z,9.1
2023-03-06T03:40:24.574Z,11.1
2023-03-06T03:42:26.531Z,10.2
2023-03-06T03:44:28.488Z,9.9
2023-03-06T03:46:30.490Z,13
2023-03-06T03:48:32.426Z,13.1
2023-03-06T03:50:37.548Z,13.6
2023-03-06T03:52:39.516Z,12
2023-03-06T03:54:41.487Z,12.3
2023-03-06T03:56:43.456Z,11.9
2023-03-06T03:58:45.399Z,13.9
2023-03-06T04:02:49.350Z,13
2023-03-06T04:12:02.950Z,13.9
2023-03-06T04:14:04.906Z,14.6
2023-03-06T04:16:06.942Z,11.9
2023-03-06T04:18:12.173Z,14.6
2023-03-06T04:20:13.979Z,14.9
2023-03-06T04:22:15.935Z,14.1
2023-03-06T04:24:19.446Z,13.2
2023-03-06T04:26:21.368Z,10.8
2023-03-06T04:34:32.400Z,15.1
2023-03-06T04:36:34.371Z,15.2
2023-03-06T04:38:36.379Z,14
2023-03-06T04:40:38.354Z,12.3
2023-03-06T04:42:40.308Z,16.5
2023-03-06T04:44:42.287Z,16.8
2023-03-06T04:48:49.372Z,14.8
2023-03-06T04:50:51.345Z,16
2023-03-06T04:52:53.312Z,16.3
2023-03-06T04:56:57.356Z,15
2023-03-06T04:58:59.258Z,14.4
2023-03-06T05:01:04.432Z,17.2
2023-03-06T05:05:08.293Z,16.1
2023-03-06T05:06:10.874Z,17.5
2023-03-06T05:08:12.840Z,17.2
2023-03-06T05:10:14.792Z,16.5
2023-03-06T05:12:16.769Z,15.2
2023-03-06T05:14:21.962Z,19.3
2023-03-06T05:16:23.968Z,10.1
2023-03-06T05:18:25.871Z,13.8
2023-03-06T05:20:27.815Z,13.3
2023-03-06T05:22:29.802Z,16
2023-03-06T05:24:31.890Z,10.8
2023-03-06T05:26:33.720Z,16.7
2023-03-06T05:28:38.854Z,15
2023-03-06T05:30:40.821Z,16.2
2023-03-06T05:36:46.758Z,15.6
2023-03-06T05:38:48.713Z,13.9
2023-03-06T05:40:50.680Z,14.4
2023-03-06T05:44:57.804Z,12.5
2023-03-06T05:46:59.746Z,14.8
2023-03-06T05:49:01.707Z,14
2023-03-06T05:51:03.664Z,13
2023-03-06T05:53:05.648Z,13.5
2023-03-06T05:55:07.612Z,13.1
2023-03-06T05:59:14.683Z,15.4
2023-03-06T06:01:16.651Z,15.2
2023-03-06T06:09:42.629Z,15.3
2023-03-06T06:13:46.561Z,13.3
2023-03-06T06:15:48.542Z,12.8
2023-03-06T06:17:50.502Z,14.8
2023-03-06T06:19:52.458Z,15.3
2023-03-06T06:21:54.416Z,14.5
2023-03-06T06:23:59.565Z,14.3
2023-03-06T06:26:01.516Z,14.2
2023-03-06T06:28:03.471Z,14.3
2023-03-06T06:30:08.307Z,15.2
2023-03-06T06:32:07.438Z,12.8
2023-03-06T06:34:09.390Z,14.3
2023-03-06T06:36:11.374Z,12.1
2023-03-06T06:38:16.474Z,11.9
2023-03-06T06:42:31.595Z,12.7
2023-03-06T06:44:22.397Z,12.2
2023-03-06T06:46:59.017Z,10.9
2023-03-06T06:48:26.359Z,12.3
2023-03-06T06:57:39.981Z,10.6
2023-03-06T06:59:41.982Z,9.7
2023-03-06T07:01:43.992Z,10.3
2023-03-06T07:03:45.983Z,7.6
2023-03-06T07:05:51.051Z,10.3
2023-03-06T07:07:53.065Z,11.1
2023-03-06T07:09:55.027Z,8.6
2023-03-06T07:11:57.012Z,7.5
2023-03-06T07:13:58.993Z,7.4
2023-03-06T07:16:01.017Z,6.9
2023-03-06T07:18:02.981Z,6.9
2023-03-06T07:20:08.114Z,6.9
2023-03-06T07:22:10.131Z,6.7
2023-03-06T07:24:12.131Z,5.7
2023-03-06T07:26:14.103Z,4.5
2023-03-06T07:28:18.489Z,5.8
2023-03-06T07:30:18.087Z,6.1
2023-03-06T07:32:20.065Z,7
2023-03-06T07:34:25.213Z,7.8
2023-03-06T07:36:27.176Z,7.4
2023-03-06T07:38:29.173Z,5.6
2023-03-06T07:40:31.148Z,7.5
2023-03-06T07:42:33.158Z,7.4
2023-03-06T07:44:35.146Z,7.6
2023-03-06T07:46:37.153Z,4.9
2023-03-06T07:48:42.266Z,5.9
2023-03-06T07:53:48.828Z,5.3
2023-03-06T07:55:50.840Z,4.7
2023-03-06T07:57:52.849Z,3.3
2023-03-06T07:59:54.843Z,3.8
2023-03-06T08:01:59.995Z,4.9
2023-03-06T08:04:02.252Z,4.4
2023-03-06T08:06:04.039Z,3.9
2023-03-06T08:08:06.016Z,4.2
2023-03-06T08:10:08.022Z,3.4
2023-03-06T08:12:10.028Z,3.3
2023-03-06T08:14:12.040Z,2.7
2023-03-06T08:16:17.322Z,3.8
2023-03-06T08:18:19.182Z,3.5
2023-03-06T08:20:21.207Z,3.8
2023-03-06T08:22:23.217Z,2.9
2023-03-06T08:24:25.225Z,4.4
2023-03-06T08:26:27.256Z,3.4
2023-03-06T08:28:29.230Z,3.2
2023-03-06T08:32:36.485Z,3
2023-03-06T08:34:38.454Z,2.2
2023-03-06T08:42:46.500Z,2.8
2023-03-06T08:48:55.685Z,2.3
2023-03-06T08:50:00.403Z,2.4
2023-03-06T08:52:00.315Z,3.2
2023-03-06T08:54:02.354Z,2.6
2023-03-06T08:56:04.358Z,2.1
2023-03-06T08:58:09.543Z,2.6
2023-03-06T09:00:11.639Z,2.3
2023-03-06T09:02:13.589Z,3.1
2023-03-06T09:04:15.594Z,2.8
2023-03-06T09:06:17.654Z,2.8
2023-03-06T09:08:19.655Z,2.7
2023-03-06T09:10:21.747Z,2.7
2023-03-06T09:12:28.096Z,2.8
2023-03-06T09:14:28.762Z,2.9
2023-03-06T09:20:34.764Z,2.6
2023-03-06T09:22:36.792Z,2.3
2023-03-06T09:24:38.824Z,2.8
2023-03-06T09:28:45.938Z,2.1
2023-03-06T09:30:47.906Z,1.9
2023-03-06T09:32:49.816Z,2.2
2023-03-06T09:38:55.902Z,2.1
2023-03-06T09:43:02.984Z,2.7
2023-03-06T09:47:27.851Z,2.3
2023-03-06T09:49:29.767Z,2.1
2023-03-06T09:51:31.763Z,1.8
2023-03-06T09:53:36.716Z,1.9
2023-03-06T09:55:38.662Z,2
2023-03-06T09:57:40.594Z,1.8
2023-03-06T09:59:42.652Z,1.5
2023-03-06T10:01:44.585Z,2
2023-03-06T10:03:46.669Z,2.1
2023-03-06T10:05:48.688Z,2.1
2023-03-06T10:11:57.651Z,2
2023-03-06T10:13:59.605Z,1.6
2023-03-06T10:16:03.152Z,1.9
2023-03-06T10:18:04.980Z,2.4
2023-03-06T10:20:06.917Z,2.8
2023-03-06T10:22:11.896Z,2.2
2023-03-06T10:24:13.874Z,2.3
2023-03-06T10:26:15.808Z,2.2
2023-03-06T10:28:17.737Z,1.5
2023-03-06T10:30:19.680Z,1.8
2023-03-06T10:32:21.678Z,2
2023-03-06T10:34:23.573Z,1.9
2023-03-06T10:36:28.586Z,2.1
2023-03-06T10:38:30.525Z,1.9
2023-03-06T10:40:32.454Z,1.9
2023-03-06T10:43:36.907Z,1.9
2023-03-06T10:45:48.848Z,4.7
2023-03-06T10:51:47.788Z,1.7
2023-03-06T10:53:49.565Z,1.9
2023-03-06T10:55:51.495Z,1.5
2023-03-06T10:57:53.466Z,1.1
2023-03-06T11:01:57.466Z,1.4
2023-03-06T11:04:02.438Z,1.8
2023-03-06T11:06:04.398Z,1.3
2023-03-06T11:08:06.358Z,1.5
2023-03-06T11:10:08.338Z,1.1
2023-03-06T11:12:10.314Z,1.6
2023-03-06T11:14:12.305Z,1.2
2023-03-06T11:18:19.291Z,1.2
2023-03-06T11:20:21.253Z,1.4
2023-03-06T11:22:30.827Z,1.4
2023-03-06T11:26:27.157Z,1.5
2023-03-06T11:28:29.150Z,0.8
2023-03-06T11:32:36.161Z,1.1
2023-03-06T11:34:38.086Z,0.9
2023-03-06T11:39:44.514Z,0.9
2023-03-06T11:41:46.522Z,1.4
2023-03-06T11:43:48.457Z,1.4
2023-03-06T11:45:53.484Z,1
2023-03-06T11:47:55.458Z,1
2023-03-06T11:49:57.447Z,1.2
2023-03-06T11:51:59.393Z,0.8
2023-03-06T11:54:01.378Z,0.9
2023-03-06T11:56:03.363Z,0.8
2023-03-06T11:58:05.324Z,1
2023-03-06T12:00:10.373Z,1.2
2023-03-06T12:02:12.370Z,0.9
2023-03-06T12:04:14.304Z,0.7
2023-03-06T12:06:16.259Z,1.3
2023-03-06T12:08:18.250Z,0.9
2023-03-06T12:12:22.207Z,1.4
2023-03-06T12:14:27.242Z,1.6
2023-03-06T12:16:29.317Z,1.1
2023-03-06T12:18:31.252Z,1.1
2023-03-06T12:20:33.192Z,1.4
2023-03-06T12:24:37.195Z,1.2
2023-03-06T12:26:39.163Z,1.1
2023-03-06T12:30:46.186Z,1.3
2023-03-06T12:32:48.229Z,1.1
2023-03-06T12:33:50.702Z,1.1
2023-03-06T12:35:52.753Z,1.4
2023-03-06T12:39:56.890Z,1.3
2023-03-06T12:48:07.686Z,1
2023-03-06T12:50:10.063Z,1
2023-03-06T12:56:18.690Z,0.8
2023-03-06T12:58:20.654Z,1.2
2023-03-06T13:04:26.647Z,0.7
2023-03-06T13:06:29.789Z,0.8
2023-03-06T13:08:30.613Z,0.9
2023-03-06T13:14:48.526Z,0.6
2023-03-06T13:18:43.643Z,1.2
2023-03-06T13:22:47.652Z,1.9
2023-03-06T13:26:54.686Z,1.3
2023-03-06T13:28:56.676Z,1.5
2023-03-06T13:31:27.169Z,1.3
2023-03-06T13:33:21.327Z,1.6
2023-03-06T13:35:23.366Z,1.3
2023-03-06T13:37:28.399Z,1.5
2023-03-06T13:39:30.363Z,2.1
2023-03-06T13:41:32.364Z,1.8
2023-03-06T13:43:34.358Z,1.7
2023-03-06T13:45:36.353Z,2
2023-03-06T13:48:01.384Z,1.5
2023-03-06T13:49:40.334Z,1.9
2023-03-06T13:53:47.453Z,2.4
2023-03-06T13:55:49.396Z,1.7
2023-03-06T14:00:03.114Z,1.8
2023-03-06T14:01:55.363Z,2.5
2023-03-06T14:03:57.365Z,3
2023-03-06T14:06:02.388Z,2.5
2023-03-06T14:08:04.355Z,2.3
2023-03-06T14:10:06.374Z,4.9
2023-03-06T14:12:08.370Z,2.4
2023-03-06T14:14:10.349Z,2.7
2023-03-06T14:16:12.386Z,3
2023-03-06T14:18:14.298Z,3.3
2023-03-06T14:22:21.328Z,4.5
2023-03-06T14:24:23.304Z,3.1
2023-03-06T14:25:25.827Z,3.9
2023-03-06T14:27:27.991Z,3.1
2023-03-06T14:29:29.799Z,3.5
2023-03-06T14:31:31.857Z,4.2
2023-03-06T14:33:36.855Z,4.1
2023-03-06T14:35:38.857Z,4.7
2023-03-06T14:37:42.150Z,3.8
2023-03-06T14:39:42.791Z,3.7
2023-03-06T14:41:44.776Z,3.3
2023-03-06T14:43:46.773Z,3.4
2023-03-06T14:45:48.749Z,2.5
2023-03-06T14:47:53.967Z,3.2
2023-03-06T14:51:57.808Z,3.6
2023-03-06T14:53:59.757Z,2.9
2023-03-06T14:56:01.747Z,5
2023-03-06T15:02:10.762Z,3.4
2023-03-06T15:08:16.910Z,4.5
2023-03-06T15:10:18.668Z,5.1
2023-03-06T15:12:20.664Z,5.7
2023-03-06T15:14:22.632Z,4.6
2023-03-06T15:16:30.050Z,6.6
2023-03-06T15:18:32.170Z,6.9
2023-03-06T15:20:31.658Z,6.4
2023-03-06T15:23:36.402Z,5.7
2023-03-06T15:29:45.141Z,7.9
2023-03-06T15:31:47.136Z,7
2023-03-06T15:33:49.084Z,7.5
2023-03-06T15:35:51.097Z,8.2
2023-03-06T15:39:54.991Z,8.8
2023-03-06T15:41:56.951Z,8.6
2023-03-06T15:44:02.188Z,9.8
2023-03-06T15:46:04.291Z,12.1
2023-03-06T15:48:06.312Z,11.9
2023-03-06T15:50:08.358Z,11.4
2023-03-06T15:52:10.468Z,9.9
2023-03-06T15:54:12.927Z,11.6
2023-03-06T15:56:14.573Z,10.2
2023-03-06T15:58:19.748Z,10.6
2023-03-06T16:00:27.451Z,10.7
2023-03-06T16:02:23.868Z,6.1
2023-03-06T16:04:25.962Z,10.6
2023-03-06T16:06:27.985Z,12
2023-03-06T16:08:30.484Z,11.3
2023-03-06T16:10:32.467Z,10.8
2023-03-06T16:14:39.728Z,10.2
2023-03-06T16:16:41.966Z,9.3
2023-03-06T16:19:46.422Z,8.9
2023-03-06T16:21:48.459Z,9.7
2023-03-06T16:23:50.509Z,9.4
2023-03-06T16:27:57.760Z,8.9
2023-03-06T16:29:59.777Z,10.1
2023-03-06T16:34:03.890Z,9.1
2023-03-06T16:36:05.985Z,7.3
2023-03-06T16:38:07.968Z,8.5
2023-03-06T16:42:15.183Z,6.2
2023-03-06T16:44:17.250Z,8.6
2023-03-06T16:46:19.340Z,9.4
2023-03-06T16:48:21.323Z,8.2
2023-03-06T16:52:25.430Z,9.3
2023-03-06T17:00:36.726Z,10.5
2023-03-06T17:02:38.817Z,7.8
2023-03-06T17:04:40.806Z,10.2
2023-03-06T17:06:42.855Z,11.1
2023-03-06T17:08:48.089Z,12
2023-03-06T17:10:50.318Z,11.6
2023-03-06T17:21:18.584Z,12.2
2023-03-06T17:29:26.749Z,15.2
2023-03-06T17:33:30.817Z,11.4
2023-03-06T17:37:38.178Z,16.4
2023-03-06T17:39:40.088Z,16.8
2023-03-06T17:41:42.125Z,14.9
2023-03-06T17:43:44.155Z,14.7
2023-03-06T17:45:46.166Z,15.9
2023-03-06T17:47:49.232Z,15.5
2023-03-06T17:49:53.394Z,17.2
2023-03-06T17:51:55.428Z,16.5
2023-03-06T17:53:57.477Z,16.9
2023-03-06T17:55:59.528Z,17.1
2023-03-06T17:58:01.543Z,19.8
2023-03-06T18:04:10.770Z,21
2023-03-06T18:06:12.824Z,18.3
2023-03-06T18:08:14.841Z,8.9
2023-03-06T18:09:17.426Z,19.9
2023-03-06T18:11:19.462Z,16.4
2023-03-06T18:13:21.478Z,17
2023-03-06T18:17:28.731Z,24.3
2023-03-06T18:19:30.746Z,18.7
2023-03-06T18:25:36.825Z,23.9
2023-03-06T18:27:38.848Z,13.3
2023-03-06T18:29:40.885Z,22
2023-03-06T18:31:46.133Z,23.5
2023-03-06T18:33:48.115Z,23.6
2023-03-06T18:35:50.156Z,20.8
2023-03-06T18:37:52.183Z,23.8
2023-03-06T18:39:54.194Z,13.8
2023-03-06T18:41:56.255Z,19.2
2023-03-06T18:43:58.289Z,21.6
2023-03-06T18:46:03.543Z,26.5
2023-03-06T18:48:05.479Z,26.8
2023-03-06T18:54:11.576Z,23.7
2023-03-06T18:56:13.650Z,22.5
2023-03-06T18:58:15.675Z,22.8
2023-03-06T19:05:27.471Z,26.9
2023-03-06T19:07:29.487Z,26.7
2023-03-06T19:09:31.547Z,19.3
2023-03-06T19:11:33.552Z,22.8
2023-03-06T19:13:38.754Z,29
2023-03-06T19:15:40.746Z,21.6
2023-03-06T19:17:42.782Z,26.1
2023-03-06T19:19:44.829Z,21.1
2023-03-06T19:21:46.820Z,26.4
2023-03-06T19:23:48.900Z,19.3
2023-03-06T19:25:50.910Z,24.7
2023-03-06T19:29:58.095Z,23.7
2023-03-06T19:32:00.235Z,13.6
2023-03-06T19:34:02.166Z,14.2
2023-03-06T19:36:04.165Z,19.6
2023-03-06T19:38:06.202Z,21
2023-03-06T19:40:08.235Z,22.6
2023-03-06T19:42:14.015Z,23.1
2023-03-06T19:44:15.415Z,22.1
2023-03-06T19:46:17.570Z,23.2
2023-03-06T19:48:21.758Z,23
2023-03-06T19:50:21.490Z,20.4
2023-03-06T19:52:23.536Z,21.2
2023-03-06T19:54:25.550Z,7.8
2023-03-06T19:56:30.720Z,21.8
2023-03-06T20:01:37.340Z,21.8
2023-03-06T20:03:39.363Z,19
2023-03-06T20:05:41.379Z,13.4
2023-03-06T20:07:43.398Z,16.7
2023-03-06T20:09:48.561Z,21.2
2023-03-06T20:11:50.583Z,9.1
2023-03-06T20:13:52.619Z,20.8
2023-03-06T20:15:54.672Z,21.1
2023-03-06T20:17:56.904Z,14.7
2023-03-06T20:19:58.644Z,14
2023-03-06T20:22:00.642Z,23.2
2023-03-06T20:24:05.804Z,24
2023-03-06T20:26:07.833Z,13.3
2023-03-06T20:28:09.878Z,19
2023-03-06T20:30:11.837Z,22.7
2023-03-06T20:32:13.885Z,11.1
2023-03-06T20:34:15.870Z,20.6
2023-03-06T20:36:17.881Z,17.2
2023-03-06T20:38:23.104Z,14.8
2023-03-06T20:40:25.104Z,21.7
2023-03-06T20:42:27.077Z,19.7
2023-03-06T20:44:29.104Z,17.4
2023-03-06T20:46:31.310Z,17
2023-03-06T20:50:35.130Z,11.8
2023-03-06T20:56:44.276Z,12.1
2023-03-06T20:59:01.108Z,23.2
2023-03-06T21:01:03.101Z,17.1
2023-03-06T21:03:05.095Z,15.2
2023-03-06T21:05:10.346Z,24.4
2023-03-06T21:09:14.217Z,18.1
2023-03-06T21:11:16.241Z,17.1
2023-03-06T21:13:18.240Z,21.7
2023-03-06T21:15:20.242Z,19.5
2023-03-06T21:17:22.256Z,16.7
2023-03-06T21:19:27.373Z,19.2
2023-03-06T21:21:29.390Z,22.4
2023-03-06T21:23:31.398Z,19
2023-03-06T21:29:37.404Z,22.7
2023-03-06T21:31:39.441Z,22.2
2023-03-06T21:33:44.558Z,21.6
2023-03-06T21:35:46.606Z,21
2023-03-06T21:37:48.583Z,22.9
2023-03-06T21:39:50.586Z,20.4
2023-03-06T21:41:52.633Z,23.9
2023-03-06T21:45:56.690Z,22.8
2023-03-06T21:48:01.816Z,17.9
2023-03-06T21:50:03.764Z,19.6
2023-03-06T21:52:05.766Z,25.9
2023-03-06T21:53:08.331Z,23.1
2023-03-06T21:55:10.348Z,22.8
2023-03-06T21:57:12.349Z,24.7
2023-03-06T21:59:15.919Z,24.4
2023-03-06T22:03:23.032Z,22.6
2023-03-06T22:07:27.039Z,23.4
2023-03-06T22:09:29.071Z,17.8
2023-03-06T22:11:31.215Z,23.9
2023-03-06T22:13:33.084Z,18.7
2023-03-06T22:15:38.274Z,23.9
2023-03-06T22:17:40.267Z,21.3
2023-03-06T22:19:42.289Z,21.6
2023-03-06T22:23:46.314Z,18.5
2023-03-06T22:25:48.338Z,20.7
2023-03-06T22:27:50.352Z,21.2
2023-03-06T22:29:55.540Z,13.3
2023-03-06T22:31:57.587Z,21.1
2023-03-06T22:33:59.571Z,21.1
2023-03-06T22:36:01.678Z,22
2023-03-06T22:42:07.520Z,10.4
2023-03-06T22:44:12.709Z,12.5
2023-03-06T22:46:14.855Z,15.8
2023-03-06T22:48:16.722Z,20
2023-03-06T22:49:19.342Z,19.7
2023-03-06T22:51:21.338Z,15
2023-03-06T22:53:23.401Z,10
2023-03-06T22:55:25.455Z,16.4
2023-03-06T22:57:30.610Z,16.4
2023-03-06T22:59:32.638Z,16.4
2023-03-06T23:01:34.747Z,16.9
2023-03-06T23:03:36.720Z,16.1
2023-03-06T23:05:38.737Z,18.2
2023-03-06T23:07:40.779Z,16.6
2023-03-06T23:09:42.813Z,16.5
2023-03-06T23:11:48.032Z,15.7
2023-03-06T23:13:50.062Z,15.9
2023-03-06T23:15:52.131Z,15.9
2023-03-06T23:17:54.101Z,15.1
2023-03-06T23:19:56.125Z,14.9
2023-03-06T23:21:58.161Z,16.2
2023-03-06T23:24:00.198Z,12.7
2023-03-06T23:26:05.384Z,8.8
2023-03-06T23:28:07.416Z,9.7
2023-03-06T23:30:10.418Z,13.5
2023-03-06T23:32:11.497Z,11.7
2023-03-06T23:34:13.490Z,12.8
2023-03-06T23:36:15.553Z,11.8
2023-03-06T23:38:17.538Z,13
2023-03-06T23:40:22.767Z,11.7
2023-03-06T23:44:26.805Z,11
2023-03-06T23:55:42.732Z,10.5
2023-03-06T23:59:46.792Z,10.2
